createdAt,value
2023-01-18T00:04:18.729Z,1.37
2023-01-18T00:09:23.522Z,1.52
2023-01-18T00:14:28.372Z,1.45
2023-01-18T00:19:36.567Z,1.42
2023-01-18T00:24:41.578Z,1.48
2023-01-18T00:29:46.501Z,1.72
2023-01-18T00:34:54.035Z,1.48
2023-01-18T00:40:01.034Z,1.30
2023-01-18T00:45:06.134Z,1.39
2023-01-18T00:50:14.720Z,1.41
2023-01-18T00:55:21.024Z,1.47
2023-01-18T01:00:27.210Z,1.52
2023-01-18T01:05:47.157Z,1.46
2023-01-18T01:10:53.852Z,1.52
2023-01-18T01:16:12.730Z,1.65
2023-01-18T01:21:32.815Z,1.67
2023-01-18T01:26:37.871Z,1.67
2023-01-18T01:31:42.764Z,1.74
2023-01-18T01:36:52.232Z,1.86
2023-01-18T01:41:57.281Z,1.87
2023-01-18T01:47:05.946Z,2.32
2023-01-18T01:52:16.333Z,2.39
2023-01-18T01:57:24.427Z,2.31
2023-01-18T02:02:29.989Z,2.30
2023-01-18T02:07:39.986Z,2.34
2023-01-18T02:12:47.736Z,2.46
2023-01-18T02:18:17.996Z,2.40
2023-01-18T02:23:35.421Z,2.31
2023-01-18T02:28:47.081Z,2.20
2023-01-18T02:34:01.752Z,2.08
2023-01-18T02:39:13.458Z,1.97
2023-01-18T02:44:39.580Z,1.82
2023-01-18T02:49:44.963Z,1.92
2023-01-18T02:54:50.014Z,1.93
2023-01-18T02:59:59.559Z,1.78
2023-01-18T03:05:05.444Z,1.71
2023-01-18T03:10:14.691Z,1.59
2023-01-18T03:15:31.608Z,1.49
2023-01-18T03:20:43.604Z,1.53
2023-01-18T03:25:53.809Z,1.47
2023-01-18T03:31:16.443Z,1.34
2023-01-18T03:36:24.999Z,1.32
2023-01-18T03:41:33.793Z,1.29
2023-01-18T03:46:43.962Z,1.32
2023-01-18T03:51:58.264Z,1.30
2023-01-18T03:57:07.582Z,1.37
2023-01-18T04:02:15.260Z,1.18
2023-01-18T04:07:20.127Z,1.03
2023-01-18T04:12:25.642Z,1.06
2023-01-18T04:17:34.652Z,0.89
2023-01-18T04:22:39.678Z,0.96
2023-01-18T04:27:44.909Z,0.73
2023-01-18T04:32:52.639Z,0.90
2023-01-18T04:37:57.513Z,0.51
2023-01-18T04:43:02.391Z,0.84
2023-01-18T04:48:15.753Z,0.78
2023-01-18T04:53:21.179Z,0.90
2023-01-18T04:58:26.148Z,0.85
2023-01-18T05:03:38.208Z,0.87
2023-01-18T05:08:43.872Z,1.20
2023-01-18T05:13:53.349Z,1.13
2023-01-18T05:19:01.764Z,1.02
2023-01-18T05:24:07.745Z,1.11
2023-01-18T05:29:13.260Z,0.95
2023-01-18T05:34:21.031Z,1.06
2023-01-18T05:39:26.740Z,1.03
2023-01-18T05:44:32.890Z,0.97
2023-01-18T05:49:41.934Z,1.07
2023-01-18T05:54:47.090Z,1.14
2023-01-18T05:59:52.039Z,1.22
2023-01-18T06:04:59.598Z,1.09
2023-01-18T06:10:04.452Z,1.06
2023-01-18T06:15:11.438Z,0.99
2023-01-18T06:20:20.033Z,1.10
2023-01-18T06:25:25.251Z,1.35
2023-01-18T06:30:35.859Z,1.33
2023-01-18T06:35:44.471Z,1.15
2023-01-18T06:40:50.810Z,1.10
2023-01-18T06:46:08.933Z,1.19
2023-01-18T06:51:17.435Z,1.12
2023-01-18T06:56:23.503Z,1.13
2023-01-18T07:01:28.931Z,1.10
2023-01-18T07:06:39.308Z,1.17
2023-01-18T07:11:47.116Z,1.06
2023-01-18T07:16:52.222Z,1.01
2023-01-18T07:22:00.930Z,1.11
2023-01-18T07:27:10.707Z,1.18
2023-01-18T07:32:16.439Z,1.06
2023-01-18T07:37:24.284Z,1.13
2023-01-18T07:42:32.118Z,0.97
2023-01-18T07:47:40.550Z,0.90
2023-01-18T07:52:58.700Z,0.88
2023-01-18T07:58:05.950Z,0.86
2023-01-18T08:03:18.520Z,0.92
2023-01-18T08:08:27.813Z,0.99
2023-01-18T08:13:32.916Z,1.10
2023-01-18T08:18:45.414Z,1.10
2023-01-18T08:23:56.453Z,1.02
2023-01-18T08:29:02.358Z,0.90
2023-01-18T08:34:07.322Z,1.10
2023-01-18T08:39:18.337Z,1.24
2023-01-18T08:44:25.678Z,1.21
2023-01-18T08:49:33.737Z,1.21
2023-01-18T08:54:42.741Z,1.34
2023-01-18T08:59:48.151Z,1.15
2023-01-18T09:04:53.926Z,0.99
2023-01-18T09:10:01.675Z,1.16
2023-01-18T09:15:07.705Z,1.41
2023-01-18T09:20:18.752Z,1.48
2023-01-18T09:25:29.638Z,1.17
2023-01-18T09:30:36.011Z,1.20
2023-01-18T09:35:42.975Z,1.35
2023-01-18T09:40:52.743Z,1.56
2023-01-18T09:45:59.881Z,1.92
2023-01-18T09:51:14.527Z,1.84
2023-01-18T09:56:31.345Z,2.01
2023-01-18T10:01:38.449Z,2.30
2023-01-18T10:06:49.494Z,1.93
2023-01-18T10:12:02.402Z,2.10
2023-01-18T10:17:14.463Z,2.14
2023-01-18T10:22:25.192Z,1.98
2023-01-18T10:27:55.444Z,2.15
2023-01-18T10:33:03.104Z,2.53
2023-01-18T10:38:12.115Z,2.54
2023-01-18T10:43:22.145Z,2.77
2023-01-18T10:48:30.504Z,3.14
2023-01-18T10:53:37.236Z,3.18
2023-01-18T10:58:48.453Z,2.50
2023-01-18T11:03:56.471Z,2.08
2023-01-18T11:09:02.146Z,2.95
2023-01-18T11:14:26.289Z,3.05
2023-01-18T11:19:31.542Z,3.16
2023-01-18T11:24:37.894Z,3.12
2023-01-18T11:29:48.426Z,3.19
2023-01-18T11:34:55.419Z,3.33
2023-01-18T11:40:00.549Z,3.46
2023-01-18T11:45:24.678Z,2.78
2023-01-18T11:50:38.382Z,2.67
2023-01-18T11:55:56.169Z,2.84
2023-01-18T12:01:23.876Z,2.82
2023-01-18T12:06:42.982Z,3.25
2023-01-18T12:12:18.133Z,3.01
2023-01-18T12:17:40.190Z,3.17
2023-01-18T12:23:12.007Z,2.91
2023-01-18T12:28:32.558Z,2.92
2023-01-18T12:33:52.328Z,3.03
2023-01-18T12:39:00.008Z,2.97
2023-01-18T12:44:28.844Z,3.16
2023-01-18T12:49:42.321Z,2.78
2023-01-18T12:54:50.978Z,2.71
2023-01-18T13:00:10.769Z,2.75
2023-01-18T13:05:23.914Z,3.17
2023-01-18T13:10:30.849Z,2.36
2023-01-18T13:15:44.004Z,2.80
2023-01-18T13:21:06.794Z,2.66
2023-01-18T13:26:31.556Z,2.66
2023-01-18T13:31:41.675Z,2.76
2023-01-18T13:36:50.403Z,2.37
2023-01-18T13:42:25.460Z,2.57
2023-01-18T13:47:49.487Z,2.42
2023-01-18T13:53:19.089Z,2.50
2023-01-18T13:58:30.239Z,2.49
2023-01-18T14:03:38.534Z,2.11
2023-01-18T14:08:57.279Z,2.26
2023-01-18T14:14:08.399Z,2.37
2023-01-18T14:19:20.223Z,2.25
2023-01-18T14:25:00.529Z,1.89
2023-01-18T14:30:16.406Z,2.41
2023-01-18T14:35:26.066Z,1.93
2023-01-18T14:40:33.973Z,1.91
2023-01-18T14:45:49.519Z,1.80
2023-01-18T14:50:59.140Z,1.74
2023-01-18T14:56:06.340Z,1.98
2023-01-18T15:01:28.341Z,2.12
2023-01-18T15:06:44.573Z,1.70
2023-01-18T15:11:50.722Z,1.97
2023-01-18T15:17:01.087Z,2.06
2023-01-18T15:22:08.584Z,2.32
2023-01-18T15:27:15.775Z,2.00
2023-01-18T15:32:25.855Z,2.35
2023-01-18T15:37:33.773Z,2.22
2023-01-18T15:42:42.788Z,2.02
2023-01-18T15:47:54.923Z,1.86
2023-01-18T15:53:06.334Z,1.71
2023-01-18T15:58:16.035Z,1.66
2023-01-18T16:03:26.681Z,1.84
2023-01-18T16:08:31.660Z,1.89
2023-01-18T16:13:39.363Z,2.29
2023-01-18T16:18:50.939Z,1.70
2023-01-18T16:23:57.264Z,2.25
2023-01-18T16:29:14.609Z,2.10
2023-01-18T16:34:26.232Z,1.87
2023-01-18T16:39:31.108Z,1.69
2023-01-18T16:44:36.489Z,1.50
2023-01-18T16:49:44.275Z,1.43
2023-01-18T16:54:49.263Z,1.45
2023-01-18T16:59:54.321Z,1.60
2023-01-18T17:05:04.099Z,1.53
2023-01-18T17:10:22.001Z,1.36
2023-01-18T17:15:28.348Z,1.29
2023-01-18T17:20:36.229Z,1.32
2023-01-18T17:25:45.508Z,1.38
2023-01-18T17:30:52.509Z,1.61
2023-01-18T17:36:00.117Z,1.37
2023-01-18T17:41:07.108Z,1.65
2023-01-18T17:46:13.926Z,1.32
2023-01-18T17:51:21.507Z,1.12
2023-01-18T17:56:26.513Z,1.09
2023-01-18T18:01:31.808Z,1.19
2023-01-18T18:06:46.051Z,1.09
2023-01-18T18:11:54.633Z,1.13
2023-01-18T18:16:59.535Z,1.22
2023-01-18T18:22:07.095Z,1.23
2023-01-18T18:27:12.327Z,1.15
2023-01-18T18:32:17.578Z,1.03
2023-01-18T18:37:25.084Z,1.08
2023-01-18T18:42:29.984Z,1.14
2023-01-18T18:47:35.573Z,1.06
2023-01-18T18:52:43.204Z,1.26
2023-01-18T18:57:48.288Z,1.07
2023-01-18T19:02:53.643Z,0.87
2023-01-18T19:08:02.321Z,0.97
2023-01-18T19:13:07.511Z,0.79
2023-01-18T19:18:14.673Z,0.76
2023-01-18T19:23:22.437Z,0.67
2023-01-18T19:28:27.385Z,0.78
2023-01-18T19:33:32.470Z,0.62
2023-01-18T19:38:45.775Z,0.59
2023-01-18T19:43:52.103Z,0.57
2023-01-18T19:49:00.547Z,0.64
2023-01-18T19:54:10.125Z,0.52
2023-01-18T19:59:15.576Z,0.59
2023-01-18T20:04:20.776Z,0.47
2023-01-18T20:09:42.159Z,0.54
2023-01-18T20:14:48.751Z,0.45
2023-01-18T20:19:54.936Z,0.21
2023-01-18T20:25:02.812Z,0.29
2023-01-18T20:30:09.378Z,0.40
2023-01-18T20:35:14.401Z,0.43
2023-01-18T20:40:24.094Z,0.40
2023-01-18T20:45:29.071Z,0.38
2023-01-18T20:50:34.014Z,0.53
2023-01-18T20:55:42.030Z,0.33
2023-01-18T21:00:47.139Z,0.56
2023-01-18T21:05:52.045Z,0.50
2023-01-18T21:10:59.481Z,0.48
2023-01-18T21:16:04.395Z,0.42
2023-01-18T21:21:11.597Z,0.51
2023-01-18T21:26:19.224Z,0.48
2023-01-18T21:31:24.674Z,0.59
2023-01-18T21:36:29.717Z,0.75
2023-01-18T21:41:49.609Z,0.58
2023-01-18T21:46:55.252Z,0.40
2023-01-18T21:52:12.571Z,0.54
2023-01-18T21:57:20.148Z,0.73
2023-01-18T22:02:25.103Z,0.73
2023-01-18T22:07:30.918Z,0.75
2023-01-18T22:12:39.242Z,1.04
2023-01-18T22:17:44.145Z,0.37
2023-01-18T22:22:49.574Z,0.34
2023-01-18T22:27:57.133Z,0.18
2023-01-18T22:33:02.156Z,0.06
2023-01-18T22:38:07.267Z,-0.09
2023-01-18T22:43:14.742Z,0.11
2023-01-18T22:48:19.844Z,0.20
2023-01-18T22:53:25.627Z,-0.05
2023-01-18T22:58:33.447Z,-0.17
2023-01-18T23:03:38.434Z,0.18
2023-01-18T23:08:45.933Z,-0.13
2023-01-18T23:14:08.722Z,0.14
2023-01-18T23:19:13.569Z,0.16
2023-01-18T23:24:18.574Z,0.32
2023-01-18T23:29:26.334Z,-0.25
2023-01-18T23:34:31.600Z,-0.71
2023-01-18T23:39:48.979Z,-1.07
2023-01-18T23:45:09.029Z,-1.07
2023-01-18T23:50:26.545Z,-1.02
2023-01-18T23:55:31.379Z,-0.98
